Аэропорт: Сокол. Магадан

ICAO: UHMM

METAR:
2019/03/26 13:00
UHMM 261300Z 01006MPS 9999 NSC M09/M18 Q0990 RMK QFE728
METAR:
2019/03/26 12:20
TAF UHMM 261038Z 2612/2718 35005G12MPS 9999 SCT040 
      TEMPO 2612/2718 02008G16MPS 5000 -SN BLSN SCT030